createdAt,value
2024-02-16T00:00:31.536Z,0
2024-02-16T00:01:31.780Z,0
2024-02-16T00:02:31.863Z,0
2024-02-16T00:03:31.782Z,0
2024-02-16T00:04:31.485Z,0
2024-02-16T00:05:31.644Z,0
2024-02-16T00:06:31.758Z,0
2024-02-16T00:07:31.697Z,0
2024-02-16T00:08:31.510Z,0
2024-02-16T00:09:32.772Z,0
2024-02-16T00:10:32.659Z,0
2024-02-16T00:11:32.747Z,0
2024-02-16T00:12:32.733Z,0
2024-02-16T00:13:32.861Z,0
2024-02-16T00:14:32.692Z,0
2024-02-16T00:15:32.762Z,0
2024-02-16T00:16:32.640Z,0
2024-02-16T00:17:32.672Z,0
2024-02-16T00:18:32.981Z,0
2024-02-16T00:19:32.691Z,0
2024-02-16T00:20:32.665Z,0
2024-02-16T00:21:32.839Z,0
2024-02-16T00:22:32.687Z,0
2024-02-16T00:23:32.706Z,0
2024-02-16T00:24:32.910Z,0
2024-02-16T00:25:32.766Z,0
2024-02-16T00:26:32.790Z,0
2024-02-16T00:27:32.908Z,0
2024-02-16T00:28:32.766Z,0
2024-02-16T00:29:32.794Z,0
2024-02-16T00:30:32.779Z,0
2024-02-16T00:31:32.884Z,0
2024-02-16T00:32:32.797Z,0
2024-02-16T00:33:32.962Z,0
2024-02-16T00:34:33.676Z,0
2024-02-16T00:35:32.748Z,0
2024-02-16T00:36:32.928Z,0
2024-02-16T00:37:32.783Z,0
2024-02-16T00:38:32.737Z,0
2024-02-16T00:39:32.841Z,0
2024-02-16T00:40:36.179Z,0
2024-02-16T00:41:32.742Z,0
2024-02-16T00:42:32.789Z,0
2024-02-16T00:43:32.864Z,0
2024-02-16T00:44:32.779Z,0
2024-02-16T00:45:32.927Z,0
2024-02-16T00:46:32.791Z,0
2024-02-16T00:47:32.840Z,0
2024-02-16T00:48:32.954Z,0
2024-02-16T00:49:32.894Z,0
2024-02-16T00:50:32.763Z,0
2024-02-16T00:51:32.823Z,0
2024-02-16T00:52:32.775Z,0
2024-02-16T00:53:32.803Z,0
2024-02-16T00:54:32.863Z,0
2024-02-16T00:55:32.828Z,0
2024-02-16T00:56:32.808Z,0
2024-02-16T00:57:32.849Z,0
2024-02-16T00:58:32.814Z,0
2024-02-16T00:59:32.768Z,0
2024-02-16T01:00:32.932Z,0
2024-02-16T01:01:32.803Z,0
2024-02-16T01:02:32.834Z,0
2024-02-16T01:03:32.833Z,0
2024-02-16T01:04:32.630Z,0
2024-02-16T01:05:32.688Z,0
2024-02-16T01:06:32.667Z,0
2024-02-16T01:07:32.775Z,0
2024-02-16T01:08:32.644Z,0
2024-02-16T01:09:32.832Z,0
2024-02-16T01:10:32.669Z,0
2024-02-16T01:11:32.843Z,0
2024-02-16T01:12:32.670Z,0
2024-02-16T01:13:32.715Z,0
2024-02-16T01:14:32.801Z,0
2024-02-16T01:15:32.853Z,0
2024-02-16T01:16:32.638Z,0
2024-02-16T01:17:32.730Z,0
2024-02-16T01:18:32.864Z,0
2024-02-16T01:19:32.764Z,0
2024-02-16T01:20:32.658Z,0
2024-02-16T01:21:32.663Z,0
2024-02-16T01:22:32.809Z,0
2024-02-16T01:23:32.729Z,0
2024-02-16T01:24:32.800Z,0
2024-02-16T01:25:32.739Z,0
2024-02-16T01:26:32.696Z,0
2024-02-16T01:27:32.694Z,0
2024-02-16T01:28:32.731Z,0
2024-02-16T01:29:32.774Z,0
2024-02-16T01:30:32.906Z,0
2024-02-16T01:31:32.810Z,0
2024-02-16T01:32:32.754Z,0
2024-02-16T01:33:32.737Z,0
2024-02-16T01:34:32.999Z,0
2024-02-16T01:35:32.671Z,0
2024-02-16T01:36:32.662Z,0
2024-02-16T01:37:32.657Z,0
2024-02-16T01:38:32.624Z,0
2024-02-16T01:39:32.810Z,0
2024-02-16T01:40:32.682Z,0
2024-02-16T01:41:32.708Z,0
2024-02-16T01:42:32.824Z,0
2024-02-16T01:43:32.786Z,0
2024-02-16T01:44:32.637Z,0
2024-02-16T01:45:32.748Z,0
2024-02-16T01:46:32.654Z,0
2024-02-16T01:47:32.728Z,0
2024-02-16T01:48:32.837Z,0
2024-02-16T01:49:32.763Z,0
2024-02-16T01:50:35.240Z,0
2024-02-16T01:51:32.784Z,0
2024-02-16T01:52:32.688Z,0
2024-02-16T01:53:32.697Z,0
2024-02-16T01:54:32.759Z,0
2024-02-16T01:55:32.761Z,0
2024-02-16T01:56:32.768Z,0
2024-02-16T01:57:32.938Z,0
2024-02-16T01:58:32.615Z,0
2024-02-16T01:59:32.742Z,0
2024-02-16T02:00:32.750Z,0
2024-02-16T02:01:32.779Z,0
2024-02-16T02:02:32.638Z,0
2024-02-16T02:03:32.781Z,0
2024-02-16T02:04:32.861Z,0
2024-02-16T02:05:32.814Z,0
2024-02-16T02:06:32.796Z,0
2024-02-16T02:07:32.964Z,0
2024-02-16T02:08:32.687Z,0
2024-02-16T02:09:32.824Z,0
2024-02-16T02:10:32.690Z,0
2024-02-16T02:11:32.771Z,0
2024-02-16T02:12:32.793Z,0
2024-02-16T02:13:32.699Z,0
2024-02-16T02:14:32.794Z,0
2024-02-16T02:15:35.215Z,0
2024-02-16T02:16:40.784Z,0
2024-02-16T02:17:32.770Z,0
2024-02-16T02:18:32.789Z,0
2024-02-16T02:19:33.060Z,0
2024-02-16T02:20:32.758Z,0
2024-02-16T02:21:32.795Z,0
2024-02-16T02:22:32.684Z,0
2024-02-16T02:23:32.671Z,0
2024-02-16T02:24:32.828Z,0
2024-02-16T02:25:32.719Z,0
2024-02-16T02:26:32.617Z,0
2024-02-16T02:27:32.970Z,0
2024-02-16T02:28:32.688Z,0
2024-02-16T02:29:32.680Z,0
2024-02-16T02:30:32.829Z,0
2024-02-16T02:31:32.706Z,0
2024-02-16T02:32:32.836Z,0
2024-02-16T02:33:32.822Z,0
2024-02-16T02:34:32.829Z,0
2024-02-16T02:35:32.628Z,0
2024-02-16T02:36:32.869Z,0
2024-02-16T02:37:32.633Z,0
2024-02-16T02:38:32.642Z,0
2024-02-16T02:39:32.741Z,0
2024-02-16T02:40:32.651Z,0
2024-02-16T02:41:32.627Z,0
2024-02-16T02:42:32.802Z,0
2024-02-16T02:43:32.644Z,0
2024-02-16T02:44:32.728Z,0
2024-02-16T02:45:32.783Z,0
2024-02-16T02:46:32.661Z,0
2024-02-16T02:47:32.813Z,0
2024-02-16T02:48:33.006Z,0
2024-02-16T02:49:32.745Z,0
2024-02-16T02:50:32.729Z,0
2024-02-16T02:51:32.805Z,0
2024-02-16T02:52:32.756Z,0
2024-02-16T02:53:32.725Z,0
2024-02-16T02:54:32.731Z,0
2024-02-16T02:55:32.711Z,0
2024-02-16T02:56:32.801Z,0
2024-02-16T02:57:32.732Z,0
2024-02-16T02:58:32.623Z,0
2024-02-16T02:59:32.621Z,0
2024-02-16T03:00:32.928Z,0
2024-02-16T03:01:32.689Z,0
2024-02-16T03:02:32.649Z,0
2024-02-16T03:03:32.769Z,0
2024-02-16T03:04:32.739Z,0
2024-02-16T03:05:32.738Z,0
2024-02-16T03:06:32.859Z,0
2024-02-16T03:07:32.730Z,0
2024-02-16T03:08:32.665Z,0
2024-02-16T03:09:32.825Z,0
2024-02-16T03:10:32.728Z,0
2024-02-16T03:11:32.664Z,0
2024-02-16T03:12:32.671Z,0
2024-02-16T03:13:32.654Z,0
2024-02-16T03:14:32.788Z,0
2024-02-16T03:15:32.870Z,0
2024-02-16T03:16:32.724Z,0
2024-02-16T03:17:32.762Z,0
2024-02-16T03:18:33.088Z,0
2024-02-16T03:19:33.002Z,0
2024-02-16T03:20:32.763Z,0
2024-02-16T03:21:32.716Z,0
2024-02-16T03:22:32.643Z,0
2024-02-16T03:23:32.699Z,0
2024-02-16T03:24:32.774Z,0
2024-02-16T03:25:32.661Z,0
2024-02-16T03:26:32.680Z,0
2024-02-16T03:27:32.789Z,0
2024-02-16T03:28:32.650Z,0
2024-02-16T03:29:32.749Z,0
2024-02-16T03:30:32.755Z,0
2024-02-16T03:31:32.652Z,0
2024-02-16T03:32:32.780Z,0
2024-02-16T03:33:32.872Z,0
2024-02-16T03:34:32.793Z,0
2024-02-16T03:35:32.687Z,0
2024-02-16T03:36:32.864Z,0
2024-02-16T03:37:32.697Z,0
2024-02-16T03:38:32.696Z,0
2024-02-16T03:39:32.985Z,0
2024-02-16T03:40:32.638Z,0
2024-02-16T03:41:32.638Z,0
2024-02-16T03:42:32.768Z,0
2024-02-16T03:43:32.722Z,0
2024-02-16T03:44:32.769Z,0
2024-02-16T03:45:32.791Z,0
2024-02-16T03:46:32.836Z,0
2024-02-16T03:47:32.775Z,0
2024-02-16T03:48:33.053Z,0
2024-02-16T03:49:32.752Z,0
2024-02-16T03:50:34.095Z,0
2024-02-16T03:51:32.797Z,0
2024-02-16T03:52:32.755Z,0
2024-02-16T03:53:32.591Z,0
2024-02-16T03:54:32.780Z,0
2024-02-16T03:55:32.761Z,0
2024-02-16T03:56:32.675Z,0
2024-02-16T03:57:32.747Z,0
2024-02-16T03:58:32.648Z,0
2024-02-16T03:59:32.744Z,0
2024-02-16T04:00:32.852Z,0
2024-02-16T04:01:32.701Z,0
2024-02-16T04:02:32.622Z,0
2024-02-16T04:03:32.942Z,0
2024-02-16T04:04:32.688Z,0
2024-02-16T04:05:32.626Z,0
2024-02-16T04:06:32.686Z,0
2024-02-16T04:07:32.848Z,0
2024-02-16T04:08:32.643Z,0
2024-02-16T04:09:32.697Z,0
2024-02-16T04:10:32.682Z,0
2024-02-16T04:11:32.735Z,0
2024-02-16T04:12:32.686Z,0
2024-02-16T04:13:32.680Z,0
2024-02-16T04:14:32.637Z,0
2024-02-16T04:15:33.026Z,0
2024-02-16T04:16:32.680Z,0
2024-02-16T04:17:32.687Z,0
2024-02-16T04:18:32.840Z,0
2024-02-16T04:19:32.833Z,0
2024-02-16T04:20:32.747Z,0
2024-02-16T04:21:32.749Z,0
2024-02-16T04:22:32.608Z,0
2024-02-16T04:23:32.667Z,0
2024-02-16T04:24:32.853Z,0
2024-02-16T04:25:32.720Z,0
2024-02-16T04:26:32.626Z,0
2024-02-16T04:27:32.692Z,0
2024-02-16T04:28:32.634Z,0
2024-02-16T04:29:32.630Z,0
2024-02-16T04:30:32.652Z,0
2024-02-16T04:31:32.673Z,0
2024-02-16T04:32:32.640Z,0
2024-02-16T04:33:32.762Z,0
2024-02-16T04:34:32.835Z,0
2024-02-16T04:35:32.651Z,0
2024-02-16T04:36:32.752Z,0
2024-02-16T04:37:32.642Z,0
2024-02-16T04:38:32.637Z,0
2024-02-16T04:39:32.768Z,0
2024-02-16T04:40:32.665Z,0
2024-02-16T04:41:32.624Z,0
2024-02-16T04:42:32.688Z,0
2024-02-16T04:43:32.650Z,0
2024-02-16T04:44:32.623Z,0
2024-02-16T04:45:32.728Z,0
2024-02-16T04:46:32.626Z,0
2024-02-16T04:47:32.640Z,0
2024-02-16T04:48:32.878Z,0
2024-02-16T04:49:32.714Z,0
2024-02-16T04:50:32.634Z,0
2024-02-16T04:51:32.837Z,0
2024-02-16T04:52:32.629Z,0
2024-02-16T04:53:32.641Z,0
2024-02-16T04:54:32.756Z,0
2024-02-16T04:55:32.756Z,0
2024-02-16T04:56:32.628Z,0
2024-02-16T04:57:32.653Z,0
2024-02-16T04:58:32.598Z,0
2024-02-16T04:59:32.635Z,0
2024-02-16T05:00:32.752Z,0
2024-02-16T05:01:32.725Z,0
2024-02-16T05:02:32.662Z,0
2024-02-16T05:03:32.699Z,0
2024-02-16T05:04:32.622Z,0
2024-02-16T05:05:32.881Z,0
2024-02-16T05:06:32.887Z,0
2024-02-16T05:07:32.869Z,0
2024-02-16T05:08:32.610Z,0
2024-02-16T05:09:32.698Z,0
2024-02-16T05:10:32.618Z,0
2024-02-16T05:11:32.745Z,0
2024-02-16T05:12:32.833Z,0
2024-02-16T05:13:32.676Z,0
2024-02-16T05:14:32.678Z,0
2024-02-16T05:15:32.905Z,0
2024-02-16T05:16:32.600Z,0
2024-02-16T05:17:32.661Z,0
2024-02-16T05:18:32.683Z,0
2024-02-16T05:19:32.666Z,0
2024-02-16T05:20:32.633Z,0
2024-02-16T05:21:32.704Z,0
2024-02-16T05:22:32.607Z,0
2024-02-16T05:23:32.636Z,0
2024-02-16T05:24:32.700Z,0
2024-02-16T05:25:32.612Z,0
2024-02-16T05:26:32.683Z,0
2024-02-16T05:27:32.724Z,0
2024-02-16T05:28:32.603Z,0
2024-02-16T05:29:32.648Z,0
2024-02-16T05:30:32.700Z,0
2024-02-16T05:31:32.699Z,0
2024-02-16T05:32:32.676Z,0
2024-02-16T05:33:32.775Z,0
2024-02-16T05:34:32.936Z,0
2024-02-16T05:35:32.665Z,0
2024-02-16T05:36:32.670Z,0
2024-02-16T05:37:32.579Z,0
2024-02-16T05:38:32.626Z,0
2024-02-16T05:39:33.007Z,0
2024-02-16T05:40:32.644Z,0
2024-02-16T05:41:32.609Z,0
2024-02-16T05:42:32.804Z,0
2024-02-16T05:43:32.626Z,0
2024-02-16T05:44:32.641Z,0
2024-02-16T05:45:32.632Z,0
2024-02-16T05:46:32.636Z,0
2024-02-16T05:47:32.588Z,0
2024-02-16T05:48:32.685Z,0
2024-02-16T05:49:32.711Z,0
2024-02-16T05:50:32.870Z,0
2024-02-16T05:51:32.686Z,0
2024-02-16T05:52:32.594Z,0
2024-02-16T05:53:32.595Z,0
2024-02-16T05:54:35.016Z,0
2024-02-16T05:55:32.624Z,0
2024-02-16T05:56:32.609Z,0
2024-02-16T05:57:32.628Z,0
2024-02-16T05:58:32.607Z,0
2024-02-16T05:59:32.633Z,0
2024-02-16T06:00:32.649Z,0
2024-02-16T06:01:32.665Z,0
2024-02-16T06:02:32.622Z,0
2024-02-16T06:03:32.677Z,0
2024-02-16T06:04:32.672Z,0
2024-02-16T06:05:32.625Z,0
2024-02-16T06:06:32.651Z,0
2024-02-16T06:07:32.723Z,0
2024-02-16T06:08:32.673Z,0
2024-02-16T06:09:32.768Z,0
2024-02-16T06:10:32.585Z,0
2024-02-16T06:11:32.663Z,0
2024-02-16T06:12:32.863Z,0
2024-02-16T06:13:32.606Z,0
2024-02-16T06:14:32.597Z,0
2024-02-16T06:15:32.678Z,0
2024-02-16T06:16:32.608Z,0
2024-02-16T06:17:32.736Z,0
2024-02-16T06:18:32.697Z,0
2024-02-16T06:19:32.702Z,0
2024-02-16T06:20:32.664Z,0
2024-02-16T06:21:32.660Z,0
2024-02-16T06:22:32.602Z,0
2024-02-16T06:23:32.674Z,0
2024-02-16T06:24:32.624Z,0
2024-02-16T06:25:32.646Z,0
2024-02-16T06:26:32.618Z,0
2024-02-16T06:27:32.667Z,0
2024-02-16T06:28:32.620Z,0
2024-02-16T06:29:32.632Z,0
2024-02-16T06:30:32.730Z,0
2024-02-16T06:31:32.600Z,0
2024-02-16T06:32:32.692Z,0
2024-02-16T06:33:33.026Z,0
2024-02-16T06:34:32.857Z,0
2024-02-16T06:35:32.582Z,0
2024-02-16T06:36:32.714Z,0
2024-02-16T06:37:32.599Z,0
2024-02-16T06:38:32.629Z,0
2024-02-16T06:39:32.831Z,0
2024-02-16T06:40:32.568Z,0
2024-02-16T06:41:32.691Z,0
2024-02-16T06:42:32.741Z,0
2024-02-16T06:43:32.703Z,0
2024-02-16T06:44:32.626Z,0
2024-02-16T06:45:32.671Z,0
2024-02-16T06:46:32.584Z,0
2024-02-16T06:47:32.601Z,0
2024-02-16T06:48:32.725Z,0
2024-02-16T06:49:32.702Z,0
2024-02-16T06:50:32.692Z,0
2024-02-16T06:51:32.616Z,0
2024-02-16T06:52:32.606Z,0
2024-02-16T06:53:32.638Z,0
2024-02-16T06:54:32.715Z,0
2024-02-16T06:55:32.607Z,0
2024-02-16T06:56:32.661Z,0
2024-02-16T06:57:32.691Z,0
2024-02-16T06:58:32.626Z,0.36
2024-02-16T06:59:32.610Z,0
2024-02-16T07:00:32.635Z,0
2024-02-16T07:01:32.692Z,0.36
2024-02-16T07:02:32.649Z,0
2024-02-16T07:03:32.710Z,0.85
2024-02-16T07:04:32.697Z,0
2024-02-16T07:05:34.836Z,0.85
2024-02-16T07:06:32.715Z,0.36
2024-02-16T07:07:32.573Z,0.36
2024-02-16T07:08:32.584Z,0.85
2024-02-16T07:09:32.693Z,0.36
2024-02-16T07:10:32.645Z,0.85
2024-02-16T07:11:32.676Z,1.22
2024-02-16T07:12:32.646Z,1.71
2024-02-16T07:13:32.650Z,0.85
2024-02-16T07:14:32.650Z,2.08
2024-02-16T07:15:32.638Z,2.08
2024-02-16T07:16:32.644Z,2.94
2024-02-16T07:17:32.743Z,2.57
2024-02-16T07:18:32.724Z,2.94
2024-02-16T07:19:32.682Z,2.57
2024-02-16T07:20:32.619Z,2.94
2024-02-16T07:21:32.654Z,1.71
2024-02-16T07:22:32.616Z,3.43
2024-02-16T07:23:32.580Z,2.94
2024-02-16T07:24:32.600Z,3.79
2024-02-16T07:25:32.620Z,3.79
2024-02-16T07:26:32.598Z,4.28
2024-02-16T07:27:32.663Z,3.79
2024-02-16T07:28:32.558Z,3.43
2024-02-16T07:29:32.645Z,4.77
2024-02-16T07:31:32.692Z,3.43
2024-02-16T07:32:32.581Z,5.14
2024-02-16T07:33:32.740Z,4.28
2024-02-16T07:34:32.792Z,4.28
2024-02-16T07:35:32.677Z,5.63
2024-02-16T07:36:32.667Z,4.28
2024-02-16T07:37:32.579Z,4.77
2024-02-16T07:38:32.616Z,6.85
2024-02-16T07:39:32.721Z,5.99
2024-02-16T07:40:32.615Z,5.63
2024-02-16T07:41:32.653Z,5.14
2024-02-16T07:42:32.703Z,3.79
2024-02-16T07:43:32.654Z,5.14
2024-02-16T07:44:32.671Z,6.48
2024-02-16T07:45:32.762Z,5.14
2024-02-16T07:46:36.182Z,6.48
2024-02-16T07:47:32.762Z,6.48
2024-02-16T07:48:32.951Z,5.63
2024-02-16T07:49:32.720Z,5.63
2024-02-16T07:50:32.590Z,5.63
2024-02-16T07:51:32.885Z,5.63
2024-02-16T07:52:32.571Z,4.77
2024-02-16T07:53:32.574Z,4.77
2024-02-16T07:54:32.736Z,5.99
2024-02-16T07:55:32.656Z,6.48
2024-02-16T07:56:32.587Z,5.63
2024-02-16T07:57:32.657Z,5.14
2024-02-16T07:58:32.665Z,5.99
2024-02-16T07:59:32.695Z,6.85
2024-02-16T08:00:32.750Z,5.99
2024-02-16T08:01:32.631Z,8.19
2024-02-16T08:02:32.554Z,5.63
2024-02-16T08:03:32.636Z,7.7
2024-02-16T08:04:32.616Z,5.99
2024-02-16T08:05:32.721Z,7.7
2024-02-16T08:06:32.734Z,6.48
2024-02-16T08:07:32.745Z,8.56
2024-02-16T08:08:32.592Z,6.85
2024-02-16T08:09:32.585Z,8.56
2024-02-16T08:10:32.576Z,9.91
2024-02-16T08:11:32.638Z,9.05
2024-02-16T08:12:32.761Z,9.05
2024-02-16T08:13:32.660Z,11.62
2024-02-16T08:14:32.693Z,9.05
2024-02-16T08:15:32.842Z,9.54
2024-02-16T08:16:32.699Z,9.91
2024-02-16T08:17:32.764Z,10.39
2024-02-16T08:18:32.837Z,9.91
2024-02-16T08:19:32.920Z,12.11
2024-02-16T08:20:32.602Z,11.62
2024-02-16T08:21:32.665Z,10.39
2024-02-16T08:22:32.586Z,10.77
2024-02-16T08:23:32.620Z,12.48
2024-02-16T08:24:32.706Z,10.77
2024-02-16T08:25:32.567Z,10.39
2024-02-16T08:26:32.562Z,11.25
2024-02-16T08:27:32.681Z,11.25
2024-02-16T08:28:32.663Z,10.77
2024-02-16T08:29:32.582Z,11.62
2024-02-16T08:30:32.637Z,9.54
2024-02-16T08:31:32.684Z,8.19
2024-02-16T08:32:32.718Z,9.05
2024-02-16T08:33:32.780Z,7.34
2024-02-16T08:34:32.731Z,7.34
2024-02-16T08:35:32.624Z,6.85
2024-02-16T08:36:32.736Z,6.85
2024-02-16T08:37:32.775Z,6.85
2024-02-16T08:38:32.600Z,9.91
2024-02-16T08:39:32.625Z,9.91
2024-02-16T08:40:32.575Z,10.39
2024-02-16T08:41:32.664Z,9.91
2024-02-16T08:42:32.642Z,9.91
2024-02-16T08:43:32.568Z,11.62
2024-02-16T08:44:32.571Z,12.48
2024-02-16T08:45:32.677Z,12.97
2024-02-16T08:46:32.600Z,13.33
2024-02-16T08:47:32.592Z,11.62
2024-02-16T08:48:32.699Z,11.62
2024-02-16T08:49:32.791Z,10.77
2024-02-16T08:50:32.601Z,9.91
2024-02-16T08:51:32.700Z,10.39
2024-02-16T08:52:32.575Z,8.56
2024-02-16T08:53:32.596Z,9.91
2024-02-16T08:54:32.648Z,9.05
2024-02-16T08:55:32.574Z,9.05
2024-02-16T08:56:32.564Z,10.39
2024-02-16T08:57:32.903Z,9.91
2024-02-16T08:58:32.581Z,11.62
2024-02-16T08:59:32.574Z,11.62
2024-02-16T09:00:32.690Z,15.53
2024-02-16T09:01:32.653Z,13.82
2024-02-16T09:02:32.603Z,13.33
2024-02-16T09:03:32.666Z,14.31
2024-02-16T09:04:32.626Z,15.53
2024-02-16T09:05:32.605Z,18.6
2024-02-16T09:06:32.728Z,20.8
2024-02-16T09:07:32.576Z,20.8
2024-02-16T09:08:32.562Z,20.8
2024-02-16T09:09:32.752Z,18.6
2024-02-16T09:10:32.613Z,16.02
2024-02-16T09:11:32.628Z,15.53
2024-02-16T09:12:32.750Z,15.17
2024-02-16T09:13:33.475Z,12.97
2024-02-16T09:14:32.657Z,13.82
2024-02-16T09:15:32.608Z,13.82
2024-02-16T09:16:32.542Z,13.82
2024-02-16T09:17:32.597Z,14.31
2024-02-16T09:18:32.741Z,11.25
2024-02-16T09:19:32.646Z,10.39
2024-02-16T09:20:32.607Z,13.82
2024-02-16T09:21:32.805Z,11.25
2024-02-16T09:23:32.586Z,14.31
2024-02-16T09:24:32.717Z,13.82
2024-02-16T09:25:32.605Z,14.68
2024-02-16T09:26:32.602Z,12.48
2024-02-16T09:27:32.759Z,11.25
2024-02-16T09:28:32.570Z,14.31
2024-02-16T09:29:32.669Z,12.11
2024-02-16T09:30:32.620Z,9.05
2024-02-16T09:31:32.577Z,12.11
2024-02-16T09:32:32.634Z,7.7
2024-02-16T09:33:32.725Z,8.19
2024-02-16T09:34:32.764Z,7.34
2024-02-16T09:35:32.621Z,9.54
2024-02-16T09:36:32.615Z,7.34
2024-02-16T09:37:32.560Z,6.85
2024-02-16T09:38:32.565Z,7.7
2024-02-16T09:39:32.649Z,7.7
2024-02-16T09:40:32.607Z,8.56
2024-02-16T09:41:32.568Z,5.99
2024-02-16T09:42:32.613Z,9.05
2024-02-16T09:43:32.603Z,11.25
2024-02-16T09:44:32.729Z,5.99
2024-02-16T09:45:32.588Z,7.7
2024-02-16T09:46:32.550Z,12.97
2024-02-16T09:47:32.609Z,8.19
2024-02-16T09:48:32.746Z,9.05
2024-02-16T09:49:39.322Z,11.62
2024-02-16T09:50:32.857Z,9.05
2024-02-16T09:51:32.699Z,5.99
2024-02-16T09:52:32.581Z,12.11
2024-02-16T09:53:32.587Z,10.77
2024-02-16T09:54:32.599Z,8.56
2024-02-16T09:55:32.665Z,6.85
2024-02-16T09:56:32.584Z,8.56
2024-02-16T09:57:32.574Z,11.62
2024-02-16T09:58:32.592Z,9.54
2024-02-16T09:59:32.571Z,5.99
2024-02-16T10:00:32.706Z,6.85
2024-02-16T10:01:32.616Z,9.91
2024-02-16T10:02:32.562Z,9.05
2024-02-16T10:03:32.615Z,8.56
2024-02-16T10:04:35.892Z,12.97
2024-02-16T10:05:32.577Z,12.11
2024-02-16T10:06:32.606Z,9.05
2024-02-16T10:07:32.867Z,10.77
2024-02-16T10:08:32.610Z,9.05
2024-02-16T10:09:32.736Z,11.62
2024-02-16T10:10:32.563Z,12.97
2024-02-16T10:11:32.608Z,10.77
2024-02-16T10:12:32.661Z,10.39
2024-02-16T10:13:32.556Z,11.62
2024-02-16T10:14:32.569Z,8.56
2024-02-16T10:15:32.673Z,10.77
2024-02-16T10:16:32.608Z,10.77
2024-02-16T10:17:32.582Z,9.05
2024-02-16T10:18:32.641Z,11.62
2024-02-16T10:19:32.677Z,10.77
2024-02-16T10:20:32.595Z,13.33
2024-02-16T10:21:32.693Z,13.82
2024-02-16T10:24:32.619Z,12.97
2024-02-16T10:25:33.420Z,12.97
2024-02-16T10:26:32.602Z,12.48
2024-02-16T10:27:32.697Z,11.25
2024-02-16T10:28:32.625Z,13.82
2024-02-16T10:29:32.565Z,15.17
2024-02-16T10:30:32.626Z,15.53
2024-02-16T10:31:32.598Z,14.31
2024-02-16T10:32:32.569Z,13.82
2024-02-16T10:33:32.764Z,15.53
2024-02-16T10:34:32.742Z,12.11
2024-02-16T10:35:32.559Z,12.48
2024-02-16T10:36:32.741Z,13.33
2024-02-16T10:37:32.581Z,13.82
2024-02-16T10:38:32.550Z,11.25
2024-02-16T10:39:32.581Z,9.91
2024-02-16T10:40:33.081Z,9.91
2024-02-16T10:41:32.589Z,9.54
2024-02-16T10:42:32.618Z,7.7
2024-02-16T10:43:32.577Z,8.56
2024-02-16T10:44:32.573Z,9.05
2024-02-16T10:45:32.619Z,8.19
2024-02-16T10:46:32.582Z,8.56
2024-02-16T10:47:32.604Z,9.54
2024-02-16T10:48:32.798Z,10.39
2024-02-16T10:49:32.672Z,10.77
2024-02-16T10:50:32.674Z,9.91
2024-02-16T10:51:32.649Z,10.39
2024-02-16T10:52:32.597Z,9.54
2024-02-16T10:53:32.573Z,10.77
2024-02-16T10:54:32.600Z,9.91
2024-02-16T10:55:32.573Z,11.25
2024-02-16T10:56:32.692Z,10.77
2024-02-16T10:57:32.678Z,10.39
2024-02-16T10:58:32.543Z,11.62
2024-02-16T10:59:32.627Z,12.11
2024-02-16T11:00:32.765Z,11.62
2024-02-16T11:01:32.632Z,12.48
2024-02-16T11:02:32.574Z,11.25
2024-02-16T11:03:32.707Z,10.77
2024-02-16T11:04:32.657Z,9.91
2024-02-16T11:05:32.543Z,9.05
2024-02-16T11:06:32.683Z,9.91
2024-02-16T11:07:32.671Z,9.54
2024-02-16T11:08:32.701Z,9.54
2024-02-16T11:09:32.734Z,10.77
2024-02-16T11:10:32.623Z,10.77
2024-02-16T11:11:32.658Z,9.54
2024-02-16T11:12:32.615Z,10.39
2024-02-16T11:13:32.540Z,10.77
2024-02-16T11:14:32.570Z,9.05
2024-02-16T11:15:32.691Z,9.54
2024-02-16T11:16:32.565Z,9.05
2024-02-16T11:17:32.585Z,9.05
2024-02-16T11:18:32.848Z,9.91
2024-02-16T11:19:32.795Z,7.34
2024-02-16T11:20:32.587Z,8.19
2024-02-16T11:21:32.695Z,9.54
2024-02-16T11:22:32.566Z,7.34
2024-02-16T11:23:32.650Z,8.56
2024-02-16T11:24:32.639Z,10.39
2024-02-16T11:25:32.563Z,10.39
2024-02-16T11:26:32.629Z,6.85
2024-02-16T11:27:32.779Z,7.34
2024-02-16T11:28:32.690Z,5.99
2024-02-16T11:29:32.542Z,5.99
2024-02-16T11:30:32.622Z,5.63
2024-02-16T11:31:32.558Z,5.63
2024-02-16T11:32:32.600Z,5.14
2024-02-16T11:33:32.888Z,2.57
2024-02-16T11:34:32.737Z,3.43
2024-02-16T11:35:32.678Z,7.34
2024-02-16T11:36:32.749Z,8.56
2024-02-16T11:37:32.546Z,8.56
2024-02-16T11:38:32.586Z,9.54
2024-02-16T11:39:32.657Z,9.05
2024-02-16T11:40:32.582Z,10.77
2024-02-16T11:41:32.545Z,9.91
2024-02-16T11:42:32.636Z,8.56
2024-02-16T11:43:32.596Z,9.91
2024-02-16T11:44:32.669Z,9.54
2024-02-16T11:45:32.576Z,7.7
2024-02-16T11:46:32.524Z,5.14
2024-02-16T11:47:32.668Z,5.99
2024-02-16T11:48:32.773Z,7.34
2024-02-16T11:49:32.760Z,5.63
2024-02-16T11:50:32.603Z,5.63
2024-02-16T11:51:32.668Z,4.77
2024-02-16T11:52:32.592Z,3.79
2024-02-16T11:53:32.544Z,4.28
2024-02-16T11:54:32.759Z,4.77
2024-02-16T11:55:32.565Z,6.48
2024-02-16T11:56:32.572Z,8.19
2024-02-16T11:57:32.584Z,7.34
2024-02-16T11:58:32.567Z,7.34
2024-02-16T11:59:32.593Z,9.05
2024-02-16T12:00:32.631Z,9.05
2024-02-16T12:01:32.584Z,10.77
2024-02-16T12:02:32.522Z,12.11
2024-02-16T12:03:32.694Z,13.82
2024-02-16T12:04:34.322Z,12.97
2024-02-16T12:05:32.671Z,9.91
2024-02-16T12:06:32.713Z,11.62
2024-02-16T12:07:33.294Z,14.68
2024-02-16T12:08:32.575Z,14.68
2024-02-16T12:09:32.935Z,18.11
2024-02-16T12:10:32.559Z,13.33
2024-02-16T12:11:32.680Z,16.88
2024-02-16T12:12:32.678Z,20.31
2024-02-16T12:13:32.555Z,14.31
2024-02-16T12:14:32.580Z,17.73
2024-02-16T12:15:32.732Z,19.08
2024-02-16T12:16:32.622Z,19.94
2024-02-16T12:17:32.563Z,19.94
2024-02-16T12:18:32.683Z,19.45
2024-02-16T12:19:32.690Z,19.08
2024-02-16T12:20:32.669Z,18.11
2024-02-16T12:21:32.589Z,21.65
2024-02-16T12:22:32.549Z,21.65
2024-02-16T12:23:32.590Z,18.11
2024-02-16T12:24:32.650Z,22.51
2024-02-16T12:25:32.599Z,19.08
2024-02-16T12:26:32.563Z,18.11
2024-02-16T12:27:32.656Z,20.8
2024-02-16T12:28:32.693Z,22.87
2024-02-16T12:29:32.520Z,21.16
2024-02-16T12:30:32.605Z,19.94
2024-02-16T12:31:32.637Z,19.94
2024-02-16T12:32:32.670Z,14.68
2024-02-16T12:33:32.824Z,15.17
2024-02-16T12:34:32.680Z,13.82
2024-02-16T12:35:32.602Z,12.11
2024-02-16T12:36:32.639Z,10.77
2024-02-16T12:37:32.557Z,10.39
2024-02-16T12:38:32.579Z,12.97
2024-02-16T12:39:32.694Z,13.33
2024-02-16T12:40:32.600Z,14.31
2024-02-16T12:41:32.578Z,15.53
2024-02-16T12:42:32.648Z,11.62
2024-02-16T12:43:32.559Z,10.77
2024-02-16T12:44:32.598Z,9.91
2024-02-16T12:45:32.624Z,9.91
2024-02-16T12:46:32.575Z,11.25
2024-02-16T12:47:32.589Z,11.62
2024-02-16T12:48:32.887Z,11.62
2024-02-16T12:49:32.679Z,11.25
2024-02-16T12:50:32.584Z,9.54
2024-02-16T12:51:32.648Z,9.05
2024-02-16T12:52:32.622Z,9.05
2024-02-16T12:53:32.580Z,9.05
2024-02-16T12:54:32.611Z,9.05
2024-02-16T12:55:32.589Z,10.39
2024-02-16T12:56:32.707Z,11.62
2024-02-16T12:57:32.663Z,11.25
2024-02-16T12:58:32.663Z,10.39
2024-02-16T12:59:32.590Z,11.25
2024-02-16T13:00:32.674Z,9.91
2024-02-16T13:01:32.994Z,9.91
2024-02-16T13:02:32.580Z,12.48
2024-02-16T13:03:32.631Z,12.11
2024-02-16T13:04:32.912Z,12.11
2024-02-16T13:05:32.741Z,12.11
2024-02-16T13:06:32.728Z,11.62
2024-02-16T13:07:32.675Z,11.25
2024-02-16T13:08:32.681Z,8.19
2024-02-16T13:09:32.639Z,6.48
2024-02-16T13:10:32.656Z,5.99
2024-02-16T13:11:32.582Z,6.85
2024-02-16T13:12:32.752Z,5.99
2024-02-16T13:13:32.638Z,6.85
2024-02-16T13:14:32.569Z,8.19
2024-02-16T13:15:32.689Z,9.54
2024-02-16T13:16:32.610Z,11.62
2024-02-16T13:17:35.587Z,11.25
2024-02-16T13:18:32.707Z,13.82
2024-02-16T13:19:32.732Z,13.33
2024-02-16T13:20:32.676Z,14.68
2024-02-16T13:21:32.657Z,14.68
2024-02-16T13:22:32.590Z,13.82
2024-02-16T13:23:32.585Z,12.97
2024-02-16T13:24:32.635Z,12.48
2024-02-16T13:25:32.671Z,12.11
2024-02-16T13:26:32.614Z,12.97
2024-02-16T13:27:32.768Z,14.68
2024-02-16T13:28:32.718Z,15.17
2024-02-16T13:29:33.856Z,15.17
2024-02-16T13:30:32.609Z,14.31
2024-02-16T13:31:32.587Z,14.68
2024-02-16T13:32:32.571Z,13.33
2024-02-16T13:33:32.789Z,11.25
2024-02-16T13:34:32.623Z,10.39
2024-02-16T13:35:32.658Z,14.31
2024-02-16T13:36:32.682Z,13.82
2024-02-16T13:37:32.641Z,10.77
2024-02-16T13:38:32.589Z,12.11
2024-02-16T13:39:32.591Z,12.48
2024-02-16T13:40:32.572Z,10.77
2024-02-16T13:41:32.583Z,12.11
2024-02-16T13:42:32.682Z,9.91
2024-02-16T13:43:32.541Z,9.05
2024-02-16T13:44:32.572Z,9.05
2024-02-16T13:45:32.596Z,10.39
2024-02-16T13:46:32.553Z,11.25
2024-02-16T13:47:32.550Z,10.77
2024-02-16T13:48:32.746Z,10.39
2024-02-16T13:49:32.690Z,11.62
2024-02-16T13:50:32.574Z,8.56
2024-02-16T13:51:32.585Z,8.19
2024-02-16T13:52:32.560Z,8.19
2024-02-16T13:53:33.555Z,9.05
2024-02-16T13:54:32.559Z,7.7
2024-02-16T13:55:32.536Z,5.99
2024-02-16T13:56:32.568Z,8.56
2024-02-16T13:57:32.714Z,8.56
2024-02-16T13:58:32.592Z,5.99